Yeovil, United Kingdom
Current Conditions -  °F | °C
As of 1:50 PM on Sunday 21 Dec 2014 (Local Time) from EGDY Reporting Station
Overcast Overcast  
Wind Chill: 52°   Ceiling: 2100
Heat Index: 52°   Visibility: 6mi
Dew Point: 45°   Wind: 15mph
Humidity: 76%   Direction: 240°WSW
Pressure: 30.3"   Gusts: NA
Location:  50.94°N, 2.63°W
Report Text: EGDY 211350Z AUTO 24013KT 9999 OVC021/// 11/07 Q1026
Loading
Personal Weather Stations






























Interactive Weather Map New forecast layout! Learn more

10-Day Weather Forecast

Advertisements
Track Severe Weather on mobile